Time;durP1;ratioP1;P1;durP2;ratioP2;P2;SDS_P1;SDS_P2;PMS_P1;PMS_P2;Temp;Humidity;BMP_temperature;BMP_pressure;BME280_temperature;BME280_humidity;BME280_pressure;Samples;Min_cycle;Max_cycle;Signal;HPM_P1;HPM_P2
2021/11/13 00:00:56;;;;;;;72.47;27.43;;;6.60;54.60;;;;;;5107656;28;20445;-87
2021/11/13 00:03:23;;;;;;;69.33;26.87;;;6.40;54.60;;;;;;5095884;28;20537;-87
2021/11/13 00:05:50;;;;;;;63.60;27.03;;;6.80;55.40;;;;;;5095927;28;20487;-87
2021/11/13 00:08:18;;;;;;;115.37;28.83;;;7.00;55.90;;;;;;5095742;28;20477;-87
2021/11/13 00:10:46;;;;;;;71.50;28.20;;;7.10;54.60;;;;;;5096480;28;20529;-87
2021/11/13 00:13:13;;;;;;;91.53;27.77;;;7.00;53.60;;;;;;5095833;28;20475;-88
2021/11/13 00:15:40;;;;;;;153.23;29.00;;;7.30;55.90;;;;;;5095785;28;20440;-88
2021/11/13 00:18:09;;;;;;;70.10;27.57;;;6.80;54.70;;;;;;5095230;28;20535;-88
2021/11/13 00:20:36;;;;;;;102.87;28.90;;;6.80;56.10;;;;;;5095530;28;20437;-88
2021/11/13 00:23:04;;;;;;;130.53;28.93;;;6.70;54.80;;;;;;5095918;28;20552;-88
2021/11/13 00:25:32;;;;;;;96.03;27.80;;;6.30;56.70;;;;;;5096442;28;20467;-88
2021/11/13 00:27:59;;;;;;;62.17;25.30;;;6.30;57.10;;;;;;5096222;28;20494;-88
2021/11/13 00:30:27;;;;;;;105.57;25.60;;;6.50;58.00;;;;;;5096150;28;20483;-88
2021/11/13 00:32:54;;;;;;;96.03;25.57;;;6.60;57.20;;;;;;5096610;28;20522;-88
2021/11/13 00:35:22;;;;;;;112.20;27.80;;;7.00;55.90;;;;;;5096496;28;20435;-88
2021/11/13 00:37:49;;;;;;;101.60;30.77;;;7.30;56.10;;;;;;5098234;28;20525;-88
2021/11/13 00:40:17;;;;;;;52.30;24.77;;;7.50;56.30;;;;;;5097509;28;20558;-88
2021/11/13 00:42:47;;;;;;;58.50;24.93;;;7.70;56.20;;;;;;5097061;28;20501;-88
2021/11/13 00:45:15;;;;;;;39.07;26.00;;;7.70;54.50;;;;;;5097598;28;20536;-88
2021/11/13 00:47:42;;;;;;;32.37;22.60;;;8.10;56.40;;;;;;5100519;28;20470;-87
2021/11/13 00:50:12;;;;;;;46.70;27.50;;;8.10;55.60;;;;;;5095515;28;20449;-87
2021/11/13 00:52:40;;;;;;;83.63;29.40;;;8.20;55.20;;;;;;5094943;28;20476;-87
2021/11/13 00:55:08;;;;;;;71.73;32.70;;;8.00;55.60;;;;;;5095195;28;20450;-88
2021/11/13 00:57:35;;;;;;;69.13;27.20;;;8.00;52.60;;;;;;5095210;28;20466;-87
2021/11/13 01:00:06;;;;;;;40.90;25.10;;;8.30;57.90;;;;;;5095395;28;20448;-87
2021/11/13 01:02:33;;;;;;;52.00;27.87;;;8.60;56.20;;;;;;5094486;28;20504;-88
2021/11/13 01:05:00;;;;;;;41.27;23.17;;;8.60;50.70;;;;;;5095046;28;20498;-88
2021/11/13 01:07:27;;;;;;;48.27;25.70;;;8.70;53.80;;;;;;5094989;28;20489;-87
2021/11/13 01:09:54;;;;;;;51.53;26.00;;;8.60;50.90;;;;;;5095152;28;20550;-87
2021/11/13 01:12:21;;;;;;;50.60;28.50;;;8.20;51.60;;;;;;5094073;28;20551;-87
2021/11/13 01:14:48;;;;;;;54.10;26.07;;;7.60;50.80;;;;;;5095070;28;20476;-87
2021/11/13 01:17:17;;;;;;;56.90;26.80;;;7.40;51.60;;;;;;5095049;28;20919;-87
2021/11/13 01:19:46;;;;;;;73.10;27.70;;;7.50;52.00;;;;;;5094725;28;20442;-87
2021/11/13 01:22:13;;;;;;;73.07;26.37;;;7.40;52.50;;;;;;5095094;28;20450;-87
2021/11/13 01:24:40;;;;;;;94.87;26.67;;;7.30;54.50;;;;;;5094578;28;20434;-87
2021/11/13 01:27:08;;;;;;;154.40;27.27;;;7.40;52.40;;;;;;5104529;28;20499;-87
2021/11/13 01:29:34;;;;;;;186.47;29.10;;;7.10;53.70;;;;;;5111053;28;20467;-87
2021/11/13 01:32:01;;;;;;;154.30;27.80;;;6.90;53.50;;;;;;5110765;28;20521;-87
2021/11/13 01:34:30;;;;;;;69.10;23.80;;;6.90;53.50;;;;;;5098748;28;20446;-87
2021/11/13 01:36:57;;;;;;;163.20;31.90;;;7.40;57.30;;;;;;5094664;28;20485;-88
2021/11/13 01:39:24;;;;;;;186.13;27.43;;;7.40;53.60;;;;;;5094811;28;20450;-87
2021/11/13 01:41:55;;;;;;;164.70;27.90;;;8.20;54.30;;;;;;5094539;28;20974;-88
2021/11/13 01:44:22;;;;;;;115.50;26.70;;;7.80;53.50;;;;;;5094523;28;20491;-88
2021/11/13 01:46:49;;;;;;;136.00;26.00;;;7.60;53.00;;;;;;5094363;28;20482;-88
2021/11/13 01:49:16;;;;;;;171.63;29.53;;;7.50;54.50;;;;;;5094703;28;20478;-88
2021/11/13 01:51:46;;;;;;;96.90;26.33;;;7.30;52.40;;;;;;5094690;28;20541;-88
2021/11/13 01:54:12;;;;;;;176.47;30.07;;;7.10;54.20;;;;;;5094513;28;20489;-88
2021/11/13 01:56:40;;;;;;;136.27;27.53;;;7.00;52.60;;;;;;5093953;28;20957;-88
2021/11/13 01:59:09;;;;;;;201.90;29.73;;;6.70;53.40;;;;;;5094121;28;20453;-87
2021/11/13 02:01:36;;;;;;;141.77;28.03;;;6.40;54.20;;;;;;5094196;28;20462;-87
2021/11/13 02:04:04;;;;;;;130.17;33.77;;;6.40;53.90;;;;;;5093689;28;20472;-88
2021/11/13 02:06:32;;;;;;;147.30;35.97;;;6.60;54.40;;;;;;5094764;28;20469;-88
2021/11/13 02:09:00;;;;;;;113.00;34.43;;;6.50;55.30;;;;;;5093545;28;20512;-88
2021/11/13 02:11:28;;;;;;;142.50;35.90;;;6.60;57.60;;;;;;5093841;28;20984;-88
2021/11/13 02:13:56;;;;;;;156.53;33.60;;;6.60;55.90;;;;;;5092650;28;20542;-88
2021/11/13 02:16:24;;;;;;;117.60;36.07;;;6.30;55.80;;;;;;5094058;28;20471;-88
2021/11/13 02:18:51;;;;;;;433.00;39.20;;;6.70;58.30;;;;;;5094049;28;20445;-88
2021/11/13 02:21:20;;;;;;;117.63;29.90;;;6.50;54.90;;;;;;5093482;28;20499;-88
2021/11/13 02:23:47;;;;;;;324.43;35.17;;;6.50;58.40;;;;;;5094040;28;20505;-88
2021/11/13 02:26:14;;;;;;;338.57;34.20;;;6.80;56.80;;;;;;5093415;28;20962;-88
2021/11/13 02:28:42;;;;;;;129.27;31.17;;;6.40;55.40;;;;;;5094166;28;20605;-88
2021/11/13 02:31:12;;;;;;;198.00;32.57;;;5.90;56.80;;;;;;5095052;28;20473;-88
2021/11/13 02:33:40;;;;;;;254.83;33.53;;;5.50;57.80;;;;;;5106966;28;20452;-87
2021/11/13 02:36:10;;;;;;;209.67;30.70;;;5.70;58.00;;;;;;5117198;28;20420;-87
2021/11/13 02:38:40;;;;;;;176.80;28.97;;;5.70;58.20;;;;;;5117466;28;20436;-87
2021/11/13 02:41:10;;;;;;;182.97;31.73;;;6.40;58.80;;;;;;5101685;28;20444;-88
2021/11/13 02:43:38;;;;;;;140.93;22.93;;;6.10;56.30;;;;;;5093516;28;20484;-88
2021/11/13 02:46:07;;;;;;;195.83;31.00;;;6.30;60.90;;;;;;5093762;28;20539;-88
2021/11/13 02:48:39;;;;;;;171.57;31.13;;;6.20;55.90;;;;;;5092854;28;20480;-88
2021/11/13 02:51:06;;;;;;;157.83;24.83;;;7.00;57.50;;;;;;5093342;28;20433;-88
2021/11/13 02:53:33;;;;;;;123.37;24.00;;;7.30;57.70;;;;;;5093617;28;20558;-88
2021/11/13 02:56:06;;;;;;;139.53;27.17;;;7.60;55.00;;;;;;5098653;28;20537;-88
2021/11/13 02:58:34;;;;;;;127.17;27.70;;;7.80;54.80;;;;;;5096057;28;20862;-88
2021/11/13 03:01:04;;;;;;;139.90;26.90;;;7.40;54.00;;;;;;5098458;28;20440;-88
2021/11/13 03:03:31;;;;;;;128.93;25.13;;;7.40;54.20;;;;;;5098775;28;20558;-88
2021/11/13 03:06:00;;;;;;;149.43;29.43;;;7.00;55.50;;;;;;5092527;28;20468;-88
2021/11/13 03:08:32;;;;;;;159.10;30.87;;;6.60;53.80;;;;;;5094761;28;20481;-88
2021/11/13 03:11:00;;;;;;;86.87;25.70;;;6.90;54.40;;;;;;5094901;28;20849;-87
2021/11/13 03:13:30;;;;;;;128.90;26.43;;;6.80;54.20;;;;;;5095725;28;20496;-88
2021/11/13 03:15:58;;;;;;;100.63;25.93;;;7.00;53.60;;;;;;5094055;28;20876;-88
2021/11/13 03:18:25;;;;;;;96.93;23.60;;;6.80;53.10;;;;;;5093441;28;20432;-88
2021/11/13 03:20:52;;;;;;;101.47;23.93;;;7.60;57.00;;;;;;5093679;28;20488;-88
2021/11/13 03:23:20;;;;;;;68.80;21.30;;;7.40;52.40;;;;;;5093238;28;20502;-88
2021/11/13 03:25:53;;;;;;;51.20;24.23;;;7.40;55.10;;;;;;5093257;28;20497;-88
2021/11/13 03:28:22;;;;;;;100.90;23.73;;;7.90;52.80;;;;;;5092810;28;20655;-88
2021/11/13 03:30:51;;;;;;;104.70;24.50;;;7.80;52.50;;;;;;5093816;28;20483;-88
2021/11/13 03:33:18;;;;;;;104.23;27.00;;;7.00;52.60;;;;;;5093529;28;20519;-88
2021/11/13 03:35:45;;;;;;;71.97;27.30;;;6.80;55.30;;;;;;5094059;28;20463;-88
2021/11/13 03:38:15;;;;;;;75.07;26.60;;;6.70;55.50;;;;;;5093881;28;20460;-88
2021/11/13 03:40:44;;;;;;;86.27;28.57;;;6.80;54.70;;;;;;5092394;28;21016;-88
2021/11/13 03:43:11;;;;;;;77.83;25.77;;;6.90;54.00;;;;;;5092194;28;20542;-87
2021/11/13 03:45:39;;;;;;;50.57;25.50;;;6.80;54.20;;;;;;5093992;28;20548;-88
2021/11/13 03:48:07;;;;;;;65.90;28.00;;;6.70;54.50;;;;;;5093776;28;21007;-88
2021/11/13 03:50:35;;;;;;;69.67;29.90;;;7.10;53.50;;;;;;5112326;28;20495;-87
2021/11/13 03:53:02;;;;;;;117.77;26.53;;;6.90;53.70;;;;;;5114808;28;20467;-87
2021/11/13 03:55:29;;;;;;;69.87;29.60;;;6.90;54.80;;;;;;5116516;28;20427;-87
2021/11/13 03:57:56;;;;;;;73.83;29.10;;;6.50;55.40;;;;;;5119218;28;20444;-87
2021/11/13 04:00:23;;;;;;;137.53;29.33;;;6.60;55.50;;;;;;5108226;28;20809;-87
2021/11/13 04:02:50;;;;;;;238.93;30.37;;;6.50;55.50;;;;;;5097175;28;20481;-87
2021/11/13 04:05:20;;;;;;;151.40;28.40;;;6.10;55.00;;;;;;5097597;28;20535;-87
2021/11/13 04:07:48;;;;;;;154.30;28.53;;;6.10;56.00;;;;;;5096870;28;20443;-87
2021/11/13 04:10:15;;;;;;;91.90;26.70;;;6.20;55.00;;;;;;5097057;28;20478;-88
2021/11/13 04:12:43;;;;;;;106.07;27.30;;;6.30;56.10;;;;;;5097282;28;20500;-88
2021/11/13 04:15:11;;;;;;;111.37;24.70;;;7.40;57.00;;;;;;5096802;28;20812;-88
2021/11/13 04:17:39;;;;;;;84.47;23.77;;;7.50;53.80;;;;;;5096662;28;20467;-88
2021/11/13 04:20:08;;;;;;;85.57;23.10;;;7.30;52.60;;;;;;5098005;28;20443;-88
2021/11/13 04:22:37;;;;;;;124.67;22.73;;;7.30;56.00;;;;;;5096843;28;20465;-88
2021/11/13 04:25:06;;;;;;;80.17;24.10;;;7.60;54.60;;;;;;5096955;28;20869;-88
2021/11/13 04:27:33;;;;;;;66.87;22.10;;;7.30;54.20;;;;;;5096815;28;20857;-88
2021/11/13 04:30:00;;;;;;;50.60;24.53;;;7.10;53.50;;;;;;5096367;28;20480;-88
2021/11/13 04:32:29;;;;;;;84.83;23.67;;;6.90;54.30;;;;;;5096263;28;20484;-88
2021/11/13 04:35:14;;;;;;;54.50;24.63;;;7.20;55.40;;;;;;5096396;28;20727;-88
2021/11/13 04:37:44;;;;;;;58.23;25.47;;;7.10;56.00;;;;;;5096450;28;20510;-88
2021/11/13 04:40:12;;;;;;;117.93;24.87;;;7.60;55.30;;;;;;5096412;28;20548;-88
2021/11/13 04:42:39;;;;;;;109.03;24.77;;;7.90;54.30;;;;;;5096291;28;20468;-88
2021/11/13 04:45:07;;;;;;;79.37;24.00;;;7.60;53.30;;;;;;5096401;28;20866;-88
2021/11/13 04:47:34;;;;;;;117.80;24.40;;;7.50;55.30;;;;;;5095721;28;20447;-88
2021/11/13 04:50:01;;;;;;;74.43;24.33;;;7.60;53.60;;;;;;5096085;28;20903;-88
2021/11/13 04:52:28;;;;;;;70.13;22.47;;;7.30;52.70;;;;;;5095738;28;21034;-88
2021/11/13 04:54:57;;;;;;;38.93;20.17;;;7.40;51.80;;;;;;5096235;28;20452;-88
2021/11/13 04:57:25;;;;;;;51.20;19.80;;;7.60;54.60;;;;;;5095978;28;21011;-88
2021/11/13 04:59:52;;;;;;;45.73;18.87;;;8.20;56.60;;;;;;5095998;28;20536;-88
2021/11/13 05:02:19;;;;;;;74.40;22.10;;;9.10;58.70;;;;;;5095720;28;20458;-88
2021/11/13 05:04:46;;;;;;;19.93;14.97;;;8.60;51.80;;;;;;5096402;28;20492;-88
2021/11/13 05:07:13;;;;;;;169.20;76.23;;;8.80;57.10;;;;;;5095582;28;20462;-88
2021/11/13 05:09:40;;;;;;;25.37;15.17;;;8.80;54.00;;;;;;5095170;28;20502;-88
2021/11/13 05:12:09;;;;;;;24.30;18.20;;;9.30;57.40;;;;;;5095606;28;20794;-88
2021/11/13 05:14:36;;;;;;;38.90;20.90;;;9.60;55.70;;;;;;5095425;28;20446;-88
2021/11/13 05:17:04;;;;;;;30.10;20.23;;;9.50;49.50;;;;;;5095324;28;20470;-88
2021/11/13 05:19:30;;;;;;;28.37;18.97;;;9.30;51.00;;;;;;5095573;28;20439;-88
2021/11/13 05:21:57;;;;;;;26.17;18.30;;;9.20;50.50;;;;;;5095074;28;20473;-88
2021/11/13 05:24:24;;;;;;;28.00;18.73;;;9.50;54.70;;;;;;5095031;28;20442;-88
2021/11/13 05:26:51;;;;;;;31.03;20.57;;;9.40;52.40;;;;;;5095758;28;20469;-88
2021/11/13 05:29:20;;;;;;;27.50;19.70;;;9.40;51.40;;;;;;5096002;28;20525;-88
2021/11/13 05:31:46;;;;;;;25.97;18.60;;;9.20;51.90;;;;;;5095440;28;20514;-88
2021/11/13 05:34:14;;;;;;;23.67;18.00;;;9.80;55.30;;;;;;5093554;28;20523;-88
2021/11/13 05:36:41;;;;;;;34.57;21.97;;;9.60;52.10;;;;;;5089433;28;20466;-88
2021/11/13 05:39:08;;;;;;;26.83;19.93;;;9.60;50.50;;;;;;5074593;28;20467;-88
2021/11/13 05:41:36;;;;;;;28.10;19.13;;;9.30;52.10;;;;;;5074190;28;20952;-88
2021/11/13 05:44:03;;;;;;;28.47;20.20;;;9.60;53.20;;;;;;5074377;28;20488;-88
2021/11/13 05:46:31;;;;;;;30.97;21.67;;;9.70;53.40;;;;;;5073947;28;20485;-88
2021/11/13 05:48:58;;;;;;;29.10;20.03;;;9.70;51.10;;;;;;5074258;28;20528;-88
2021/11/13 05:51:25;;;;;;;49.63;21.87;;;9.70;54.20;;;;;;5074418;28;20484;-88
2021/11/13 05:53:52;;;;;;;31.83;21.67;;;9.90;52.30;;;;;;5073686;28;20464;-88
2021/11/13 05:56:19;;;;;;;34.90;22.10;;;10.00;49.70;;;;;;5074320;28;20529;-88
2021/11/13 05:58:46;;;;;;;34.03;22.03;;;9.90;49.90;;;;;;5074708;28;20940;-88
2021/11/13 06:01:13;;;;;;;25.40;17.73;;;9.90;50.00;;;;;;5074364;28;20542;-88
2021/11/13 06:03:41;;;;;;;21.20;15.90;;;9.80;52.70;;;;;;5074984;28;20467;-89
2021/11/13 06:06:08;;;;;;;27.20;18.90;;;10.20;51.30;;;;;;5073430;28;20447;-88
2021/11/13 06:08:35;;;;;;;27.87;18.47;;;10.30;46.50;;;;;;5073861;28;20534;-89
2021/11/13 06:11:02;;;;;;;26.87;18.00;;;9.90;50.50;;;;;;5073303;28;20941;-88
2021/11/13 06:13:29;;;;;;;22.57;16.10;;;9.50;49.00;;;;;;5073679;28;20468;-89
2021/11/13 06:15:56;;;;;;;32.53;21.20;;;9.70;57.60;;;;;;5072794;28;20948;-88
2021/11/13 06:18:22;;;;;;;33.63;22.07;;;8.80;49.50;;;;;;5073764;28;20518;-88
2021/11/13 06:20:51;;;;;;;30.53;19.67;;;8.20;51.10;;;;;;5073594;28;20481;-88
2021/11/13 06:23:18;;;;;;;27.80;20.07;;;7.20;53.60;;;;;;5073366;28;20475;-88
2021/11/13 06:25:45;;;;;;;28.87;19.77;;;6.80;54.00;;;;;;5073699;28;20518;-88
2021/11/13 06:28:11;;;;;;;28.33;20.30;;;6.70;55.90;;;;;;5073392;28;20479;-87
2021/11/13 06:30:38;;;;;;;29.90;21.57;;;6.90;54.80;;;;;;5073205;28;20507;-87
2021/11/13 06:33:05;;;;;;;31.37;21.43;;;6.60;54.90;;;;;;5073206;28;20475;-87
2021/11/13 06:35:32;;;;;;;37.30;22.13;;;6.40;55.60;;;;;;5073114;28;20482;-87
2021/11/13 06:38:00;;;;;;;37.17;21.77;;;6.20;56.50;;;;;;5073000;28;20489;-87
2021/11/13 06:40:27;;;;;;;36.80;25.60;;;6.10;56.60;;;;;;5073301;28;20542;-87
2021/11/13 06:42:54;;;;;;;30.40;22.53;;;6.60;56.70;;;;;;5073418;28;20499;-88
2021/11/13 06:45:22;;;;;;;32.00;22.00;;;6.60;56.00;;;;;;5073501;28;20548;-87
2021/11/13 06:47:49;;;;;;;26.50;17.03;;;7.10;54.90;;;;;;5072939;28;20535;-88
2021/11/13 06:50:16;;;;;;;34.40;25.07;;;8.80;63.00;;;;;;5073133;28;20550;-88
2021/11/13 06:52:43;;;;;;;31.60;21.47;;;9.90;54.60;;;;;;5073453;28;20550;-88
2021/11/13 06:55:13;;;;;;;30.83;22.40;;;8.80;51.80;;;;;;5074023;28;20486;-87
2021/11/13 06:57:40;;;;;;;32.43;23.90;;;8.10;53.50;;;;;;5074516;28;20522;-87
2021/11/13 07:00:11;;;;;;;36.90;22.97;;;7.40;54.20;;;;;;5074039;28;20486;-87
2021/11/13 07:02:38;;;;;;;35.90;25.37;;;6.90;55.50;;;;;;5074387;28;20498;-86
2021/11/13 07:05:06;;;;;;;35.73;25.13;;;6.70;55.60;;;;;;5074862;28;20478;-86
2021/11/13 07:07:33;;;;;;;41.87;28.20;;;6.90;55.50;;;;;;5083025;28;20453;-86
2021/11/13 07:10:01;;;;;;;45.80;28.90;;;6.80;55.20;;;;;;5090162;28;20466;-86
2021/11/13 07:12:29;;;;;;;41.00;28.20;;;7.00;55.90;;;;;;5072954;28;20555;-87
2021/11/13 07:14:56;;;;;;;39.30;26.03;;;6.90;54.90;;;;;;5073236;28;20454;-87
2021/11/13 07:17:24;;;;;;;39.57;26.87;;;6.90;55.90;;;;;;5073596;28;20556;-90
2021/11/13 07:19:51;;;;;;;52.93;32.13;;;7.50;55.60;;;;;;5072436;28;20937;-90
2021/11/13 07:22:18;;;;;;;41.80;26.47;;;8.10;57.00;;;;;;5072805;28;20467;-90
2021/11/13 07:24:46;;;;;;;44.10;27.23;;;8.60;55.60;;;;;;5073221;28;20535;-90
2021/11/13 07:27:13;;;;;;;42.10;28.57;;;9.20;55.90;;;;;;5073190;28;20451;-90
2021/11/13 07:29:45;;;;;;;41.10;25.73;;;9.30;54.40;;;;;;5076978;28;20538;-90
2021/11/13 07:32:13;;;;;;;24.87;17.63;;;9.70;54.40;;;;;;5080005;28;20436;-90
2021/11/13 07:34:40;;;;;;;27.63;20.97;;;10.00;54.80;;;;;;5079236;28;20885;-90
2021/11/13 07:37:07;;;;;;;21.50;16.17;;;10.80;55.50;;;;;;5079079;28;20467;-91
2021/11/13 07:39:34;;;;;;;21.63;15.97;;;11.50;53.30;;;;;;5078072;28;20463;-90
2021/11/13 07:42:01;;;;;;;24.90;17.27;;;12.10;52.80;;;;;;5078053;28;20467;-90
2021/11/13 07:44:28;;;;;;;22.30;16.17;;;12.40;51.70;;;;;;5077769;28;20496;-89
2021/11/13 07:46:56;;;;;;;19.60;14.13;;;12.50;50.50;;;;;;5077129;28;20513;-91
2021/11/13 07:49:23;;;;;;;23.47;15.30;;;12.70;49.30;;;;;;5080052;28;20527;-88
2021/11/13 07:51:50;;;;;;;25.77;15.53;;;12.60;50.60;;;;;;5076213;28;20952;-88
2021/11/13 07:54:17;;;;;;;19.67;14.20;;;13.00;50.10;;;;;;5075996;28;20514;-89
2021/11/13 07:56:44;;;;;;;19.70;13.43;;;13.20;48.80;;;;;;5076512;28;20559;-89
2021/11/13 07:59:13;;;;;;;22.07;15.63;;;12.90;47.90;;;;;;5078641;28;20446;-89
2021/11/13 08:01:40;;;;;;;25.00;15.17;;;13.20;47.00;;;;;;5078581;28;20453;-89
2021/11/13 08:04:10;;;;;;;20.63;13.53;;;13.30;48.50;;;;;;5076751;28;20476;-89
2021/11/13 08:06:38;;;;;;;48.07;26.10;;;13.40;47.80;;;;;;5078451;28;20417;-89
2021/11/13 08:09:05;;;;;;;20.30;15.77;;;13.10;47.70;;;;;;5080041;28;20474;-89
2021/11/13 08:11:32;;;;;;;22.23;15.80;;;12.70;43.50;;;;;;5093938;28;20447;-89
2021/11/13 08:13:59;;;;;;;21.47;15.27;;;11.70;43.40;;;;;;5095977;28;20451;-87
2021/11/13 08:16:26;;;;;;;22.13;17.57;;;11.10;46.80;;;;;;5099696;28;20433;-87
2021/11/13 08:18:53;;;;;;;25.63;18.87;;;10.80;46.70;;;;;;5087205;28;20530;-89
2021/11/13 08:21:23;;;;;;;22.30;17.17;;;10.70;46.80;;;;;;5085554;28;20443;-89
2021/11/13 08:23:50;;;;;;;25.40;17.03;;;10.80;48.30;;;;;;5082900;28;20787;-89
2021/11/13 08:26:17;;;;;;;24.53;17.17;;;11.20;48.60;;;;;;5078832;28;20451;-89
2021/11/13 08:28:44;;;;;;;25.23;18.10;;;10.70;45.70;;;;;;5080958;28;20451;-89
2021/11/13 08:31:11;;;;;;;26.07;19.30;;;11.80;50.60;;;;;;5077795;28;20476;-89
2021/11/13 08:33:38;;;;;;;24.80;17.30;;;10.80;47.00;;;;;;5078559;28;21012;-89
2021/11/13 08:36:05;;;;;;;24.90;19.13;;;10.30;48.20;;;;;;5077460;28;20440;-89
2021/11/13 08:38:33;;;;;;;24.90;18.77;;;10.00;48.20;;;;;;5078604;28;20455;-89
2021/11/13 08:41:01;;;;;;;24.70;17.30;;;9.70;50.30;;;;;;5078658;28;20489;-89
2021/11/13 08:43:28;;;;;;;23.97;19.77;;;9.80;51.70;;;;;;5078230;28;20470;-89
2021/11/13 08:45:55;;;;;;;30.03;19.70;;;10.20;50.70;;;;;;5077612;28;20577;-90
2021/11/13 08:48:22;;;;;;;28.03;19.50;;;10.40;48.50;;;;;;5078008;28;20452;-89
2021/11/13 08:50:49;;;;;;;24.07;17.70;;;10.20;49.80;;;;;;5077678;28;20516;-89
2021/11/13 08:53:16;;;;;;;34.67;18.27;;;10.20;51.50;;;;;;5077497;28;20467;-90
2021/11/13 08:55:45;;;;;;;27.47;17.50;;;10.90;51.30;;;;;;5078036;28;20470;-89
2021/11/13 08:58:12;;;;;;;25.33;17.67;;;11.90;52.10;;;;;;5076956;28;20463;-90
2021/11/13 09:00:44;;;;;;;29.03;19.20;;;12.40;48.00;;;;;;5077353;28;20516;-89
2021/11/13 09:03:14;;;;;;;26.20;17.43;;;12.20;46.50;;;;;;5081629;28;20478;-89
2021/11/13 09:05:42;;;;;;;29.00;16.13;;;11.90;47.60;;;;;;5082207;28;20469;-89
2021/11/13 09:08:09;;;;;;;21.10;15.67;;;12.50;48.50;;;;;;5084881;28;20480;-89
2021/11/13 09:10:37;;;;;;;24.57;16.60;;;12.90;48.20;;;;;;5082069;28;20493;-89
2021/11/13 09:13:06;;;;;;;26.60;18.30;;;13.30;46.20;;;;;;5083251;28;20493;-89
2021/11/13 09:15:35;;;;;;;25.67;17.83;;;13.20;45.10;;;;;;5082487;28;20470;-89
2021/11/13 09:18:04;;;;;;;29.53;18.60;;;12.90;46.70;;;;;;5080979;28;20447;-89
2021/11/13 09:20:32;;;;;;;26.83;17.70;;;12.90;46.80;;;;;;5076745;28;20447;-89
2021/11/13 09:22:59;;;;;;;28.77;17.67;;;12.60;47.50;;;;;;5076011;28;20475;-89
2021/11/13 09:25:27;;;;;;;31.60;18.57;;;12.10;48.10;;;;;;5076946;28;20458;-89
2021/11/13 09:27:55;;;;;;;25.50;17.50;;;11.80;50.20;;;;;;5077589;28;20470;-89
2021/11/13 09:30:26;;;;;;;31.37;19.00;;;12.00;50.20;;;;;;5077915;28;20477;-89
2021/11/13 09:32:54;;;;;;;27.07;18.47;;;12.00;49.20;;;;;;5078255;28;20469;-89
2021/11/13 09:35:22;;;;;;;25.60;17.03;;;12.10;49.70;;;;;;5075707;28;20435;-89
2021/11/13 09:37:50;;;;;;;30.63;18.23;;;12.40;50.00;;;;;;5080675;28;20432;-90
2021/11/13 09:40:19;;;;;;;26.00;18.23;;;12.80;48.50;;;;;;5083232;28;20454;-89
2021/11/13 09:42:47;;;;;;;29.47;19.53;;;12.40;49.00;;;;;;5080280;28;20447;-89
2021/11/13 09:45:15;;;;;;;29.00;18.57;;;12.40;49.00;;;;;;5082653;28;20450;-89
2021/11/13 09:47:46;;;;;;;23.63;16.63;;;12.60;49.10;;;;;;5080033;28;20856;-89
2021/11/13 09:50:13;;;;;;;24.50;16.83;;;12.60;49.90;;;;;;5082214;28;20780;-88
2021/11/13 09:52:41;;;;;;;33.50;16.40;;;12.60;49.70;;;;;;5076970;28;20471;-89
2021/11/13 09:55:10;;;;;;;27.10;19.20;;;13.10;49.00;;;;;;5075892;28;20444;-89
2021/11/13 09:57:38;;;;;;;28.70;18.63;;;12.70;48.30;;;;;;5076849;28;20931;-89
2021/11/13 10:11:40;;;;;;;31.60;16.90;;;13.30;47.60;;;;;;5011320;28;20475;-92
2021/11/13 10:14:32;;;;;;;29.10;18.10;;;13.20;46.20;;;;;;5016614;28;20453;-93
2021/11/13 10:17:00;;;;;;;29.50;17.83;;;13.60;47.00;;;;;;5015944;28;20486;-91
2021/11/13 10:19:29;;;;;;;27.37;18.50;;;13.50;47.30;;;;;;5014509;28;20463;-92
2021/11/13 10:22:15;;;;;;;24.50;15.10;;;13.70;48.50;;;;;;5056084;22;20482;-92
2021/11/13 10:30:44;;;;;;;18.60;13.67;;;14.50;45.00;;;;;;5022431;28;20998;-92
2021/11/13 10:33:11;;;;;;;16.43;11.53;;;14.80;46.20;;;;;;5024076;28;20552;-93
2021/11/13 10:35:44;;;;;;;26.80;15.43;;;15.30;45.30;;;;;;5025555;28;20471;-92
2021/11/13 10:38:16;;;;;;;17.17;9.60;;;15.60;43.90;;;;;;5024970;28;20450;-91
2021/11/13 10:40:52;;;;;;;19.50;8.40;;;16.30;42.70;;;;;;5025079;28;20490;-92
2021/11/13 10:48:25;;;;;;;10.80;8.10;;;16.50;41.30;;;;;;5050668;28;20475;-92
2021/11/13 10:50:52;;;;;;;16.70;9.80;;;16.40;40.30;;;;;;5051150;28;20501;-93
2021/11/13 10:53:30;;;;;;;14.07;9.57;;;16.30;39.80;;;;;;5052266;28;20460;-92
2021/11/13 11:06:23;;;;;;;19.43;10.20;;;15.70;41.10;;;;;;5075553;28;20488;-91
2021/11/13 11:09:22;;;;;;;16.80;11.10;;;15.60;42.20;;;;;;5069972;28;20442;-92
2021/11/13 11:12:06;;;;;;;16.23;10.83;;;15.30;43.30;;;;;;5068218;28;20466;-92
2021/11/13 11:37:49;;;;;;;16.20;11.50;;;15.20;42.60;;;;;;5038326;28;20477;-94
2021/11/13 11:40:19;;;;;;;20.07;11.00;;;15.10;43.10;;;;;;5046365;28;20470;-92
2021/11/13 11:42:49;;;;;;;16.70;11.10;;;14.90;43.90;;;;;;5046461;28;20414;-92
2021/11/13 11:45:31;;;;;;;18.60;10.83;;;14.80;43.90;;;;;;5051206;28;20438;-92
2021/11/13 11:47:59;;;;;;;20.33;11.83;;;14.90;44.70;;;;;;5049923;28;20429;-92
2021/11/13 11:50:32;;;;;;;17.83;10.90;;;14.80;44.10;;;;;;5050182;28;20565;-93
2021/11/13 11:53:06;;;;;;;20.60;11.70;;;14.90;44.70;;;;;;5048070;28;20555;-92
2021/11/13 11:55:35;;;;;;;23.53;11.70;;;15.00;44.00;;;;;;5049989;28;20442;-92
2021/11/13 11:58:05;;;;;;;19.80;11.20;;;14.60;45.30;;;;;;5052961;28;20459;-92
2021/11/13 12:00:38;;;;;;;16.83;10.80;;;14.50;46.20;;;;;;5051891;28;20521;-92
2021/11/13 12:03:07;;;;;;;17.13;10.60;;;14.50;46.10;;;;;;5052267;28;20434;-92
2021/11/13 12:05:40;;;;;;;14.57;9.83;;;14.90;47.30;;;;;;5052785;28;20449;-92
2021/11/13 12:08:27;;;;;;;26.20;12.70;;;15.40;47.50;;;;;;5056138;28;20465;-93
2021/11/13 12:11:15;;;;;;;16.80;10.77;;;15.60;45.30;;;;;;5053444;28;20477;-93
2021/11/13 12:13:42;;;;;;;18.60;11.53;;;15.50;46.40;;;;;;5050519;28;20449;-93
2021/11/13 12:16:21;;;;;;;20.10;10.17;;;15.70;45.10;;;;;;5053141;28;20445;-93
2021/11/13 12:18:49;;;;;;;16.17;11.20;;;15.80;45.20;;;;;;5050963;28;20455;-91
2021/11/13 12:21:17;;;;;;;16.70;11.83;;;15.70;44.20;;;;;;5048370;28;20447;-93
2021/11/13 12:23:55;;;;;;;17.50;11.60;;;15.50;43.90;;;;;;5055489;28;20449;-93
2021/11/13 12:26:30;;;;;;;23.63;12.60;;;14.80;45.20;;;;;;5051065;28;20889;-94
2021/11/13 12:41:26;;;;;;;21.47;13.50;;;14.70;46.90;;;;;;4987325;28;20407;-92
2021/11/13 12:47:24;;;;;;;21.60;13.03;;;14.40;47.10;;;;;;4905843;29;20423;-92
2021/11/13 12:50:01;;;;;;;18.57;11.27;;;14.40;47.20;;;;;;4906854;29;20633;-93
2021/11/13 12:52:46;;;;;;;17.80;11.60;;;14.60;47.10;;;;;;4903443;29;20538;-92
2021/11/13 12:55:25;;;;;;;21.00;13.47;;;14.90;47.40;;;;;;4904486;29;20552;-92
2021/11/13 12:58:08;;;;;;;29.27;13.57;;;15.30;47.40;;;;;;4901673;29;20606;-92
2021/11/13 13:00:39;;;;;;;19.67;12.10;;;15.30;45.40;;;;;;4918730;29;20465;-93
2021/11/13 13:03:18;;;;;;;18.97;11.60;;;15.30;45.00;;;;;;4959746;29;20776;-93
2021/11/13 13:05:46;;;;;;;19.07;12.47;;;15.20;46.30;;;;;;4963770;29;20472;-92
2021/11/13 13:08:19;;;;;;;21.83;12.70;;;15.30;45.70;;;;;;4963046;29;20452;-93
2021/11/13 13:10:46;;;;;;;44.93;24.93;;;15.20;45.30;;;;;;4963866;29;20517;-92
2021/11/13 13:13:15;;;;;;;26.77;17.47;;;15.40;47.50;;;;;;4964473;29;20457;-93
2021/11/13 13:15:56;;;;;;;35.97;13.57;;;15.40;45.30;;;;;;4963705;29;20454;-93
2021/11/13 13:18:32;;;;;;;25.37;13.70;;;15.40;46.10;;;;;;4960469;29;20459;-92
2021/11/13 13:21:02;;;;;;;24.23;12.77;;;15.60;46.60;;;;;;4961967;29;20464;-93
2021/11/13 13:23:31;;;;;;;21.13;14.27;;;15.50;44.20;;;;;;5008673;28;20473;-92
2021/11/13 13:26:08;;;;;;;23.40;14.63;;;15.50;44.30;;;;;;5042741;28;20471;-92
2021/11/13 13:28:37;;;;;;;24.33;13.83;;;15.30;44.80;;;;;;5044156;28;20460;-92
2021/11/13 13:31:08;;;;;;;23.47;13.60;;;15.30;44.40;;;;;;5040780;28;20476;-92
2021/11/13 13:33:38;;;;;;;22.97;12.20;;;15.40;44.80;;;;;;5048374;28;20466;-92
2021/11/13 13:36:11;;;;;;;27.93;13.30;;;15.50;46.70;;;;;;5046129;28;20504;-93
2021/11/13 13:38:45;;;;;;;25.23;14.60;;;15.40;45.10;;;;;;5047397;28;20452;-93
2021/11/13 14:28:51;;;;;;;22.60;13.90;;;15.60;47.70;;;;;;4973098;28;20474;-92
2021/11/13 14:34:13;;;;;;;23.13;14.43;;;15.70;48.80;;;;;;4985661;28;20506;-92
2021/11/13 14:36:49;;;;;;;28.47;14.60;;;15.60;49.00;;;;;;4983976;28;20451;-92
2021/11/13 14:42:59;;;;;;;15.43;10.30;;;14.90;50.70;;;;;;4926449;29;20548;-93
2021/11/13 14:45:37;;;;;;;27.00;15.83;;;14.80;50.70;;;;;;4926793;29;20771;-93